Terminal Aerodrome Forecast
Issued by NWS Charleston, WV

Current Version | Previous Version | Text Only | Print | Product List | Glossary Off
Versions: 1 2 3 4 5 6 7 8 9 10 11 12 13 14 15 16 17 18 19 20 21 22 23 24 25 26 27 28

000
FTUS41 KRLX 251120
TAFHTS
TAF
KHTS 251120Z 2512/2612 16004KT P6SM SCT120
     FM251700 20008KT P6SM BKN060
     FM252000 26006KT P6SM VCTS BKN050CB
     FM260300 20004KT P6SM BKN050=

USA.gov is the U.S. government's official web portal to all federal, state and local government web resources and services.